createdAt,value
2023-03-11T00:01:18.449Z,7.88
2023-03-11T00:04:07.281Z,7.87
2023-03-11T00:06:49.262Z,7.86
2023-03-11T00:09:37.287Z,7.86
2023-03-11T00:12:19.277Z,7.84
2023-03-11T00:15:14.301Z,7.82
2023-03-11T00:18:02.291Z,7.80
2023-03-11T00:20:41.398Z,7.78
2023-03-11T00:23:29.294Z,7.75
2023-03-11T00:26:04.422Z,7.71
2023-03-11T00:28:52.287Z,7.65
2023-03-11T00:31:29.209Z,7.59
2023-03-11T00:34:17.332Z,7.52
2023-03-11T00:36:59.329Z,7.44
2023-03-11T00:39:54.269Z,7.40
2023-03-11T00:42:42.298Z,7.38
2023-03-11T00:45:17.422Z,7.37
2023-03-11T00:48:05.285Z,7.39
2023-03-11T00:50:42.437Z,7.49
2023-03-11T00:53:30.272Z,7.59
2023-03-11T00:56:11.306Z,7.68
2023-03-11T00:58:52.714Z,7.75
2023-03-11T01:01:40.340Z,7.79
2023-03-11T01:04:21.297Z,7.79
2023-03-11T01:07:02.453Z,7.83
2023-03-11T01:09:43.365Z,7.92
2023-03-11T01:12:25.468Z,8.00
2023-03-11T01:15:07.362Z,8.02
2023-03-11T01:17:55.263Z,8.02
2023-03-11T01:20:36.298Z,8.01
2023-03-11T01:23:25.262Z,8.00
2023-03-11T01:26:21.293Z,7.99
2023-03-11T01:29:16.276Z,7.94
2023-03-11T01:32:04.252Z,7.88
2023-03-11T01:34:46.274Z,7.86
2023-03-11T01:37:41.259Z,7.83
2023-03-11T01:40:42.339Z,7.81
2023-03-11T01:43:51.575Z,7.80
2023-03-11T01:47:01.324Z,7.81
2023-03-11T01:49:36.459Z,7.79
2023-03-11T01:52:31.878Z,7.76
2023-03-11T01:55:29.278Z,7.74
2023-03-11T01:58:19.268Z,7.71
2023-03-11T02:01:01.397Z,7.71
2023-03-11T02:03:50.239Z,7.67
2023-03-11T02:06:29.393Z,7.63
2023-03-11T02:09:17.246Z,7.62
2023-03-11T02:11:52.390Z,7.65
2023-03-11T02:14:41.259Z,7.71
2023-03-11T02:17:23.251Z,7.76
2023-03-11T02:20:46.261Z,7.78
2023-03-11T02:23:44.265Z,7.82
2023-03-11T02:26:34.417Z,7.92
2023-03-11T02:29:22.403Z,8.00
2023-03-11T02:31:57.410Z,8.05
2023-03-11T02:34:46.275Z,8.07
2023-03-11T02:37:23.444Z,8.08
2023-03-11T02:40:38.272Z,8.10
2023-03-11T02:43:15.374Z,8.13
2023-03-11T02:46:03.286Z,8.14
2023-03-11T02:48:38.384Z,8.13
2023-03-11T02:51:26.271Z,8.07
2023-03-11T02:54:04.405Z,8.01
2023-03-11T02:56:52.249Z,7.99
2023-03-11T02:59:27.861Z,8.02
2023-03-11T03:02:16.242Z,8.05
2023-03-11T03:04:58.306Z,8.07
2023-03-11T03:07:53.257Z,8.05
2023-03-11T03:10:41.283Z,8.02
2023-03-11T03:13:16.443Z,8.00
2023-03-11T03:16:04.341Z,7.99
2023-03-11T03:18:46.277Z,7.96
2023-03-11T03:21:34.251Z,7.93
2023-03-11T03:24:16.283Z,7.89
2023-03-11T03:27:04.257Z,7.85
2023-03-11T03:29:39.380Z,7.81
2023-03-11T03:32:27.344Z,7.74
2023-03-11T03:35:02.403Z,7.72
2023-03-11T03:37:57.256Z,7.68
2023-03-11T03:40:52.270Z,7.65
2023-03-11T03:43:40.262Z,7.59
2023-03-11T03:46:15.474Z,7.52
2023-03-11T03:49:03.356Z,7.47
2023-03-11T03:51:38.389Z,7.40
2023-03-11T03:54:26.262Z,7.37
2023-03-11T03:57:01.388Z,7.36
2023-03-11T03:59:49.416Z,7.33
2023-03-11T04:02:24.491Z,7.30
2023-03-11T04:05:13.253Z,7.26
2023-03-11T04:07:54.242Z,7.22
2023-03-11T04:10:49.247Z,7.17
2023-03-11T04:13:37.245Z,7.13
2023-03-11T04:16:13.436Z,7.11
2023-03-11T04:19:01.255Z,7.10
2023-03-11T04:21:36.378Z,7.05
2023-03-11T04:24:25.304Z,7.01
2023-03-11T04:27:00.403Z,6.95
2023-03-11T04:29:48.249Z,6.88
2023-03-11T04:32:30.295Z,6.85
2023-03-11T04:35:25.320Z,6.84
2023-03-11T04:38:20.276Z,6.81
2023-03-11T04:41:16.231Z,6.78
2023-03-11T04:44:06.256Z,6.74
2023-03-11T04:46:41.370Z,6.70
2023-03-11T04:49:29.249Z,6.68
2023-03-11T04:52:04.388Z,6.66
2023-03-11T04:54:52.239Z,6.67
2023-03-11T04:57:40.236Z,6.69
2023-03-11T05:00:15.903Z,6.67
2023-03-11T05:03:04.264Z,6.66
2023-03-11T05:05:38.695Z,6.65
2023-03-11T05:08:26.254Z,6.65
2023-03-11T05:11:00.663Z,6.63
2023-03-11T05:13:48.247Z,6.60
2023-03-11T05:16:22.733Z,6.61
2023-03-11T05:19:30.233Z,6.62
2023-03-11T05:22:05.497Z,6.63
2023-03-11T05:24:53.234Z,6.59
2023-03-11T05:27:34.253Z,6.56
2023-03-11T05:30:16.361Z,6.50
2023-03-11T05:32:57.306Z,6.46
2023-03-11T05:35:38.485Z,6.45
2023-03-11T05:38:20.267Z,6.46
2023-03-11T05:41:01.436Z,6.43
2023-03-11T05:43:43.256Z,6.41
2023-03-11T05:46:31.306Z,6.38
2023-03-11T05:49:05.729Z,6.34
2023-03-11T05:51:53.245Z,6.34
2023-03-11T05:54:41.235Z,6.37
2023-03-11T05:57:23.231Z,6.35
2023-03-11T06:00:20.230Z,6.27
2023-03-11T06:03:08.338Z,6.18
2023-03-11T06:05:43.368Z,6.09
2023-03-11T06:08:31.317Z,6.01
2023-03-11T06:11:17.302Z,5.95
2023-03-11T06:14:05.335Z,5.87
2023-03-11T06:16:40.542Z,5.80
2023-03-11T06:19:28.268Z,5.73
2023-03-11T06:22:10.229Z,5.71
2023-03-11T06:25:05.267Z,5.71
2023-03-11T06:27:58.221Z,5.70
2023-03-11T06:30:39.346Z,5.67
2023-03-11T06:33:21.232Z,5.64
2023-03-11T06:36:06.436Z,5.63
2023-03-11T06:38:47.276Z,5.60
2023-03-11T06:41:35.232Z,5.51
2023-03-11T06:44:11.172Z,5.44
2023-03-11T06:46:59.228Z,5.38
2023-03-11T06:49:40.226Z,5.33
2023-03-11T06:52:28.342Z,5.19
2023-03-11T06:55:03.905Z,5.08
2023-03-11T06:57:57.653Z,4.93
2023-03-11T07:00:37.564Z,4.76
2023-03-11T07:03:28.461Z,4.55
2023-03-11T07:06:08.068Z,4.41
2023-03-11T07:09:04.895Z,4.28
2023-03-11T07:11:41.985Z,4.20
2023-03-11T07:14:32.235Z,4.15
2023-03-11T07:17:06.774Z,4.08
2023-03-11T07:20:09.617Z,4.02
2023-03-11T07:22:56.999Z,4.00
2023-03-11T07:25:46.832Z,3.96
2023-03-11T07:28:35.020Z,3.86
2023-03-11T07:31:39.824Z,3.74
2023-03-11T07:34:32.234Z,3.61
2023-03-11T07:37:34.548Z,3.53
2023-03-11T07:40:32.979Z,3.54
2023-03-11T07:43:18.992Z,3.58
2023-03-11T07:46:20.583Z,3.55
2023-03-11T07:49:14.031Z,3.52
2023-03-11T07:51:51.617Z,3.54
2023-03-11T07:54:45.550Z,3.66
2023-03-11T07:57:57.280Z,3.74
2023-03-11T08:00:41.567Z,3.72
2023-03-11T08:03:29.840Z,3.69
2023-03-11T08:06:25.940Z,3.71
2023-03-11T08:09:15.285Z,3.74
2023-03-11T08:12:06.598Z,3.84
2023-03-11T08:14:53.836Z,3.92
2023-03-11T08:17:44.273Z,3.90
2023-03-11T08:20:33.489Z,3.81
2023-03-11T08:23:21.254Z,3.77
2023-03-11T08:26:18.820Z,3.81
2023-03-11T08:29:08.209Z,3.96
2023-03-11T08:32:17.620Z,4.11
2023-03-11T08:35:17.240Z,4.19
2023-03-11T08:37:58.911Z,4.23
2023-03-11T08:41:01.609Z,4.20
2023-03-11T08:43:43.577Z,4.25
2023-03-11T08:46:39.197Z,4.32
2023-03-11T08:49:20.599Z,4.36
2023-03-11T08:52:13.758Z,4.41
2023-03-11T08:55:06.991Z,4.46
2023-03-11T08:58:08.186Z,4.52
2023-03-11T09:00:46.566Z,4.62
2023-03-11T09:03:43.858Z,4.64
2023-03-11T09:06:32.294Z,4.67
2023-03-11T09:09:35.085Z,4.66
2023-03-11T09:12:20.096Z,4.64
2023-03-11T09:15:21.446Z,4.62
2023-03-11T09:18:04.521Z,4.54
2023-03-11T09:21:00.092Z,4.48
2023-03-11T09:23:46.022Z,4.40
2023-03-11T09:26:43.329Z,4.33
2023-03-11T09:29:30.586Z,4.24
2023-03-11T09:32:25.518Z,4.18
2023-03-11T09:35:14.661Z,4.08
2023-03-11T09:38:09.798Z,4.02
2023-03-11T09:41:23.637Z,3.92
2023-03-11T09:44:44.624Z,3.81
2023-03-11T09:47:34.601Z,3.67
2023-03-11T09:50:41.829Z,3.64
2023-03-11T09:53:35.209Z,3.57
2023-03-11T09:56:30.680Z,3.47
2023-03-11T09:59:33.834Z,3.43
2023-03-11T10:02:45.348Z,3.50
2023-03-11T10:05:39.085Z,3.59
2023-03-11T10:12:03.277Z,3.85
2023-03-11T10:15:39.658Z,4.02
2023-03-11T10:18:33.212Z,4.14
2023-03-11T10:21:49.205Z,4.17
2023-03-11T10:24:53.307Z,4.22
2023-03-11T10:28:03.201Z,4.18
2023-03-11T10:30:43.308Z,4.14
2023-03-11T10:33:54.209Z,4.14
2023-03-11T10:36:55.351Z,4.17
2023-03-11T10:39:43.210Z,4.29
2023-03-11T10:42:32.226Z,4.38
2023-03-11T10:45:21.186Z,4.35
2023-03-11T10:47:58.819Z,4.32
2023-03-11T10:51:25.289Z,4.30
2023-03-11T10:54:09.231Z,4.26
2023-03-11T10:57:13.284Z,4.24
2023-03-11T11:00:27.004Z,4.23
2023-03-11T11:03:14.534Z,4.24
2023-03-11T11:06:17.709Z,4.29
2023-03-11T11:09:30.751Z,4.23
2023-03-11T11:12:22.585Z,4.07
2023-03-11T11:15:54.800Z,3.92
2023-03-11T11:19:02.864Z,3.82
2023-03-11T11:22:04.583Z,3.70
2023-03-11T11:25:01.095Z,3.62
2023-03-11T11:27:45.763Z,3.52
2023-03-11T11:30:47.322Z,3.41
2023-03-11T11:33:34.360Z,3.37
2023-03-11T11:36:37.126Z,3.27
2023-03-11T11:39:40.461Z,3.08
2023-03-11T11:43:17.659Z,2.92
2023-03-11T11:46:39.053Z,2.68
2023-03-11T11:49:48.802Z,2.50
2023-03-11T11:53:29.526Z,2.36
2023-03-11T11:56:30.299Z,2.26
2023-03-11T11:59:32.956Z,2.16
2023-03-11T12:02:11.288Z,2.07
2023-03-11T12:05:22.232Z,2.03
2023-03-11T12:08:15.873Z,2.00
2023-03-11T12:11:05.184Z,1.95
2023-03-11T12:14:00.659Z,1.91
2023-03-11T12:17:10.155Z,1.89
2023-03-11T12:20:19.158Z,1.87
2023-03-11T12:23:29.170Z,1.87
2023-03-11T12:26:31.180Z,1.89
2023-03-11T12:29:26.172Z,1.91
2023-03-11T12:32:21.214Z,1.85
2023-03-11T12:35:32.202Z,1.73
2023-03-11T12:38:13.459Z,1.66
2023-03-11T12:41:13.173Z,1.70
2023-03-11T12:43:47.499Z,1.70
2023-03-11T12:47:01.350Z,1.63
2023-03-11T12:49:39.375Z,1.58
2023-03-11T12:52:36.169Z,1.53
2023-03-11T12:55:10.844Z,1.47
2023-03-11T12:58:08.182Z,1.43
2023-03-11T13:00:58.293Z,1.36
2023-03-11T13:03:56.166Z,1.34
2023-03-11T13:07:28.305Z,1.33
2023-03-11T13:10:20.202Z,1.29
2023-03-11T13:12:58.297Z,1.27
2023-03-11T13:15:48.164Z,1.26
2023-03-11T13:18:33.109Z,1.25
2023-03-11T13:21:39.171Z,1.24
2023-03-11T13:24:26.310Z,1.22
2023-03-11T13:27:27.460Z,1.23
2023-03-11T13:30:27.527Z,1.29
2023-03-11T13:33:38.160Z,1.29
2023-03-11T13:36:31.313Z,1.25
2023-03-11T13:39:29.265Z,1.24
2023-03-11T13:42:35.430Z,1.22
2023-03-11T13:45:43.275Z,1.21
2023-03-11T13:48:28.506Z,1.19
2023-03-11T13:51:30.372Z,1.22
2023-03-11T13:54:20.485Z,1.30
2023-03-11T13:57:05.168Z,1.36
2023-03-11T13:59:46.293Z,1.39
2023-03-11T14:02:30.175Z,1.45
2023-03-11T14:05:13.288Z,1.59
2023-03-11T14:07:54.165Z,1.64
2023-03-11T14:10:44.179Z,1.66
2023-03-11T14:13:19.803Z,1.65
2023-03-11T14:16:24.171Z,1.59
2023-03-11T14:19:15.586Z,1.56
2023-03-11T14:22:05.174Z,1.59
2023-03-11T14:24:47.274Z,1.61
2023-03-11T14:27:28.369Z,1.58
2023-03-11T14:30:14.756Z,1.54
2023-03-11T14:33:15.448Z,1.50
2023-03-11T14:36:06.065Z,1.40
2023-03-11T14:39:01.144Z,1.27
2023-03-11T14:41:49.162Z,1.19
2023-03-11T14:44:24.331Z,1.19
2023-03-11T14:47:46.389Z,1.16
2023-03-11T14:50:48.135Z,1.08
2023-03-11T14:53:39.936Z,0.98
2023-03-11T14:56:32.153Z,0.92
2023-03-11T14:59:23.226Z,0.87
2023-03-11T15:02:07.266Z,0.81
2023-03-11T15:04:52.153Z,0.75
2023-03-11T15:07:34.700Z,0.68
2023-03-11T15:10:18.129Z,0.68
2023-03-11T15:13:12.340Z,0.68
2023-03-11T15:16:05.171Z,0.63
2023-03-11T15:18:46.259Z,0.57
2023-03-11T15:21:30.142Z,0.55
2023-03-11T15:24:19.297Z,0.58
2023-03-11T15:27:10.354Z,0.57
2023-03-11T15:30:08.181Z,0.53
2023-03-11T15:32:45.585Z,0.51
2023-03-11T15:35:35.176Z,0.52
2023-03-11T15:38:28.681Z,0.52
2023-03-11T15:41:16.143Z,0.53
2023-03-11T15:43:57.133Z,0.52
2023-03-11T15:46:45.137Z,0.49
2023-03-11T15:49:27.134Z,0.49
2023-03-11T15:52:16.158Z,0.53
2023-03-11T15:54:58.141Z,0.54
2023-03-11T15:57:39.526Z,0.50
2023-03-11T16:00:29.136Z,0.47
2023-03-11T16:03:18.142Z,0.46
2023-03-11T16:05:52.546Z,0.45
2023-03-11T16:08:40.137Z,0.43
2023-03-11T16:11:22.119Z,0.41
2023-03-11T16:14:03.260Z,0.38
2023-03-11T16:16:45.124Z,0.37
2023-03-11T16:19:26.267Z,0.38
2023-03-11T16:22:08.211Z,0.37
2023-03-11T16:24:56.147Z,0.36
2023-03-11T16:27:38.261Z,0.32
2023-03-11T16:30:27.129Z,0.31
2023-03-11T16:33:04.331Z,0.32
2023-03-11T16:35:53.290Z,0.34
2023-03-11T16:38:29.360Z,0.35
2023-03-11T16:41:17.250Z,0.35
2023-03-11T16:44:00.519Z,0.33
2023-03-11T16:46:57.156Z,0.32
2023-03-11T16:49:38.134Z,0.33
2023-03-11T16:52:21.015Z,0.34
2023-03-11T16:55:04.106Z,0.35
2023-03-11T16:57:47.006Z,0.36
2023-03-11T17:00:28.135Z,0.34
2023-03-11T17:03:09.431Z,0.33
2023-03-11T17:05:51.133Z,0.36
2023-03-11T17:08:32.284Z,0.39
2023-03-11T17:11:13.129Z,0.41
2023-03-11T17:13:56.686Z,0.40
2023-03-11T17:16:42.209Z,0.39
2023-03-11T17:19:24.443Z,0.37
2023-03-11T17:22:06.106Z,0.38
2023-03-11T17:24:47.272Z,0.39
2023-03-11T17:27:29.231Z,0.37
2023-03-11T17:30:14.884Z,0.35
2023-03-11T17:32:57.276Z,0.33
2023-03-11T17:35:38.350Z,0.36
2023-03-11T17:38:19.116Z,0.40
2023-03-11T17:41:20.105Z,0.44
2023-03-11T17:44:08.165Z,0.45
2023-03-11T17:46:56.279Z,0.45
2023-03-11T17:49:30.533Z,0.46
2023-03-11T17:52:20.120Z,0.48
2023-03-11T17:55:16.102Z,0.41
2023-03-11T17:58:04.114Z,0.30
2023-03-11T18:00:39.241Z,0.20
2023-03-11T18:03:28.653Z,0.13
2023-03-11T18:06:09.250Z,0.08
2023-03-11T18:08:57.113Z,0.07
2023-03-11T18:11:34.269Z,0.02
2023-03-11T18:14:22.087Z,-0.03
2023-03-11T18:17:04.226Z,-0.07
2023-03-11T18:19:59.096Z,-0.07
2023-03-11T18:22:52.109Z,-0.05
2023-03-11T18:25:27.249Z,-0.03
2023-03-11T18:28:19.339Z,-0.03
2023-03-11T18:30:54.258Z,-0.05
2023-03-11T18:33:42.103Z,-0.04
2023-03-11T18:36:22.301Z,-0.03
2023-03-11T18:39:11.119Z,-0.03
2023-03-11T18:42:06.167Z,-0.05
2023-03-11T18:44:54.312Z,-0.11
2023-03-11T18:47:36.408Z,-0.17
2023-03-11T18:50:28.110Z,-0.23
2023-03-11T18:53:09.214Z,-0.26
2023-03-11T18:55:50.101Z,-0.30
2023-03-11T18:58:32.223Z,-0.31
2023-03-11T19:01:27.260Z,-0.30
2023-03-11T19:04:15.096Z,-0.29
2023-03-11T19:06:50.421Z,-0.25
2023-03-11T19:09:39.196Z,-0.18
2023-03-11T19:12:14.537Z,-0.13
2023-03-11T19:15:03.121Z,-0.10
2023-03-11T19:17:51.698Z,-0.08
2023-03-11T19:20:35.486Z,-0.08
2023-03-11T19:23:18.111Z,-0.07
2023-03-11T19:26:06.124Z,-0.03
2023-03-11T19:28:40.583Z,0.02
2023-03-11T19:31:28.112Z,0.04
2023-03-11T19:34:03.655Z,0.05
2023-03-11T19:36:53.101Z,0.03
2023-03-11T19:39:45.104Z,0.03
2023-03-11T19:42:36.338Z,0.06
2023-03-11T19:45:12.875Z,0.10
2023-03-11T19:48:03.774Z,0.13
2023-03-11T19:50:54.182Z,0.14
2023-03-11T19:53:44.110Z,0.16
2023-03-11T19:56:19.219Z,0.13
2023-03-11T19:59:07.087Z,0.11
2023-03-11T20:01:52.122Z,0.13
2023-03-11T20:04:47.163Z,0.14
2023-03-11T20:07:35.261Z,0.15
2023-03-11T20:10:11.305Z,0.13
2023-03-11T20:13:02.350Z,0.11
2023-03-11T20:15:38.431Z,0.09
2023-03-11T20:18:26.078Z,0.05
2023-03-11T20:21:00.282Z,0.04
2023-03-11T20:23:50.079Z,0.00
2023-03-11T20:26:34.158Z,-0.05
2023-03-11T20:29:31.946Z,-0.10
2023-03-11T20:32:23.388Z,-0.16
2023-03-11T20:35:06.135Z,-0.20
2023-03-11T20:37:55.095Z,-0.22
2023-03-11T20:40:38.187Z,-0.24
2023-03-11T20:43:31.737Z,-0.28
2023-03-11T20:46:10.385Z,-0.32
2023-03-11T20:49:03.237Z,-0.37
2023-03-11T20:51:50.507Z,-0.42
2023-03-11T20:54:46.498Z,-0.48
2023-03-11T20:57:34.676Z,-0.51
2023-03-11T21:00:18.458Z,-0.50
2023-03-11T21:03:00.160Z,-0.51
2023-03-11T21:05:45.873Z,-0.53
2023-03-11T21:08:27.093Z,-0.53
2023-03-11T21:11:16.164Z,-0.52
2023-03-11T21:13:52.070Z,-0.51
2023-03-11T21:16:40.186Z,-0.48
2023-03-11T21:19:14.943Z,-0.45
2023-03-11T21:22:03.061Z,-0.42
2023-03-11T21:24:39.349Z,-0.43
2023-03-11T21:27:33.075Z,-0.45
2023-03-11T21:30:08.761Z,-0.48
2023-03-11T21:32:58.123Z,-0.53
2023-03-11T21:35:32.518Z,-0.57
2023-03-11T21:38:20.361Z,-0.60
2023-03-11T21:41:20.266Z,-0.61
2023-03-11T21:44:10.530Z,-0.64
2023-03-11T21:46:52.425Z,-0.68
2023-03-11T21:49:33.358Z,-0.73
2023-03-11T21:52:15.110Z,-0.79
2023-03-11T21:55:04.088Z,-0.84
2023-03-11T21:57:38.504Z,-0.88
2023-03-11T22:00:27.109Z,-0.87
2023-03-11T22:03:08.057Z,-0.86
2023-03-11T22:05:56.366Z,-0.86
2023-03-11T22:08:38.187Z,-0.87
2023-03-11T22:11:22.373Z,-0.89
2023-03-11T22:14:07.239Z,-0.93
2023-03-11T22:16:55.302Z,-0.97
2023-03-11T22:19:50.282Z,-1.00
2023-03-11T22:22:36.289Z,-0.99
2023-03-11T22:25:17.037Z,-0.98
2023-03-11T22:28:05.243Z,-0.97
2023-03-11T22:30:41.455Z,-0.98
2023-03-11T22:33:31.251Z,-0.98
2023-03-11T22:36:07.954Z,-0.99
2023-03-11T22:38:56.066Z,-0.97
2023-03-11T22:41:31.000Z,-0.93
2023-03-11T22:44:19.081Z,-0.90
2023-03-11T22:46:53.459Z,-0.90
2023-03-11T22:49:41.067Z,-0.89
2023-03-11T22:52:16.260Z,-0.91
2023-03-11T22:55:04.158Z,-0.92
2023-03-11T22:57:39.164Z,-0.92
2023-03-11T23:00:31.215Z,-0.91
2023-03-11T23:03:05.797Z,-0.91
2023-03-11T23:05:54.063Z,-0.92
2023-03-11T23:08:35.081Z,-0.94
2023-03-11T23:11:18.241Z,-0.96
2023-03-11T23:13:59.033Z,-0.97
2023-03-11T23:16:41.640Z,-0.98
2023-03-11T23:19:23.057Z,-0.95
2023-03-11T23:22:05.458Z,-0.91
2023-03-11T23:24:48.100Z,-0.88
2023-03-11T23:27:29.151Z,-0.89
2023-03-11T23:30:10.228Z,-0.88
2023-03-11T23:32:52.198Z,-0.89
2023-03-11T23:35:33.151Z,-0.90
2023-03-11T23:38:22.040Z,-0.86
2023-03-11T23:41:03.083Z,-0.82
2023-03-11T23:43:44.173Z,-0.81
2023-03-11T23:46:25.066Z,-0.81
2023-03-11T23:49:13.048Z,-0.80
2023-03-11T23:51:47.443Z,-0.80
2023-03-11T23:54:35.046Z,-0.82
2023-03-11T23:57:09.454Z,-0.81
2023-03-11T23:59:58.224Z,-0.78
